ADDS METAR Data INFO
IDs: Format: Raw Decoded Include TAF

Data at: 2053 UTC 24 Jun 2017

KGNC 242035Z AUTO 16009G14KT 10SM SCT033 27/16 A3023 RMK AO2 T02710160
KGNC 242015Z AUTO 14008KT 10SM SCT031 26/16 A3024 RMK AO2 T02610158
KGNC 241955Z AUTO 12010KT 090V150 10SM BKN029 26/16 A3024 RMK AO2 T02560159
KGNC 241935Z AUTO 11006KT 10SM BKN027 25/16 A3025 RMK AO2 T02470159
KGNC 241915Z AUTO 10007G14KT 060V140 10SM OVC025 24/16 A3026 RMK AO2 T02390162
KGNC 241855Z AUTO 11011G15KT 10SM BKN023 24/16 A3027 RMK AO2 T02380160
KGNC 241835Z AUTO 13004G15KT 10SM BKN021 23/16 A3027 RMK AO2 T02300157
KGNC 241815Z AUTO 10009G14KT 10SM BKN019 OVC025 22/16 A3027 RMK AO2 T02240156
KGNC 241755Z AUTO 10011G16KT 10SM OVC017 22/16 A3028 RMK AO2 T02150156 10215 20171
KGNC 241735Z AUTO 09012KT 10SM OVC015 21/16 A3028 RMK AO2 T02070157
KGNC 241715Z AUTO 09013KT 10SM OVC015 21/16 A3028 RMK AO2 T02050155
KGNC 241655Z AUTO 08013KT 10SM OVC017 21/16 A3028 RMK AO2 T02070155
KGNC 241635Z AUTO 09013G18KT 10SM BKN017 BKN030 OVC034 21/16 A3028 RMK AO2 T02100156
KGNC 241615Z AUTO 08007G10KT 10SM BKN017 OVC030 21/15 A3028 RMK AO2 T02100154
KGNC 241555Z AUTO 08008G14KT 10SM OVC017 20/15 A3028 RMK AO2 T02020151
KGNC 241535Z AUTO 08009KT 10SM OVC019 20/15 A3028 RMK AO2 T01950148
KGNC 241515Z AUTO 09009G16KT 10SM OVC019 19/15 A3028 RMK AO2 T01930146
KGNC 241455Z AUTO 09012G21KT 10SM OVC019 19/14 A3028 RMK AO2 T01940143
KGNC 241435Z AUTO 08013G18KT 10SM OVC017 19/15 A3027 RMK AO2 T01900145
KGNC 241415Z AUTO 07012G18KT 10SM OVC017 19/14 A3026 RMK AO2 T01850143
KGNC 241355Z AUTO 07012G16KT 10SM OVC017 18/14 A3025 RMK AO2 T01810140
KGNC 241335Z AUTO 07012G18KT 10SM BKN017 18/14 A3025 RMK AO2 T01780136
KGNC 241315Z AUTO 07009G16KT 10SM SCT021 18/13 A3025 RMK AO2 T01750129
KGNC 241255Z AUTO 07013G22KT 10SM CLR 17/12 A3023 RMK AO2 T01720123
KGNC 241235Z AUTO 05014G22KT 10SM CLR 17/12 A3021 RMK AO2 T01710115
KGNC 241215Z AUTO 05013G19KT 10SM CLR 18/11 A3020 RMK AO2 T01750109
KGNC 241155Z AUTO 06016G22KT 10SM CLR 18/11 A3017 RMK AO2 70009 T01820108 10236 20182
KGNC 241135Z AUTO 05012G17KT 10SM CLR 18/11 A3016 RMK AO2 T01840112
KGNC 241115Z AUTO 05012G16KT 10SM CLR 19/11 A3014 RMK AO2 T01850112
KGNC 241055Z AUTO 05012G17KT 10SM CLR 19/11 A3014 RMK AO2 T01910112
KGNC 241035Z AUTO 05011KT 10SM CLR 19/12 A3012 RMK AO2 T01930116
KGNC 241015Z AUTO 03008KT 10SM CLR 19/12 A3011 RMK AO2 T01920120
KGNC 240955Z AUTO 04010KT 10SM CLR 20/12 A3010 RMK AO2 T01950120
KGNC 240935Z AUTO 03008KT 10SM CLR 20/13 A3010 RMK AO2 T01950125
KGNC 240915Z AUTO 03009KT 10SM CLR 20/13 A3011 RMK AO2 T01980125
KGNC 240855Z AUTO 03007KT 10SM CLR 20/13 A3011 RMK AO2 T02010127
KGNC 240835Z AUTO 02010G14KT 10SM CLR 20/13 A3011 RMK AO2 T02040130
KGNC 240815Z AUTO 02008G15KT 10SM CLR 21/16 A3011 RMK AO2 T02140155
KGNC 240755Z AUTO 36004KT 10SM CLR 21/17 A3011 RMK AO2 T02110166
KGNC 240735Z AUTO 00000KT 10SM CLR 21/17 A3012 RMK AO2 T02100172
KGNC 240715Z AUTO 00000KT 10SM CLR 21/17 A3013 RMK AO2 T02130171
KGNC 240655Z AUTO 00000KT 10SM CLR 22/18 A3013 RMK AO2 T02170175
KGNC 240635Z AUTO 11004KT 10SM CLR 22/17 A3012 RMK AO2 T02240172
KGNC 240615Z AUTO 00000KT 10SM CLR 23/17 A3011 RMK AO2 T02260170
KGNC 240555Z AUTO 08003KT 10SM CLR 24/16 A3010 RMK AO2 T02370164 10287 20230 404050217
KGNC 240535Z AUTO 07005KT 10SM CLR 24/16 A3010 RMK AO2 T02400160
KGNC 240515Z AUTO 08004KT 10SM CLR 24/17 A3009 RMK AO2 T02350167
KGNC 240455Z AUTO 06005KT 10SM CLR 23/17 A3008 RMK AO2 T02300169
KGNC 240435Z AUTO 08003KT 10SM CLR 23/17 A3006 RMK AO2 T02320167
KGNC 240415Z AUTO 06005KT 10SM CLR 23/17 A3005 RMK AO2 T02320167
KGNC 240355Z AUTO 04003KT 10SM CLR 23/17 A3004 RMK AO2 T02320165
KGNC 240335Z AUTO 05003KT 10SM CLR 23/16 A3002 RMK AO2 T02320163
KGNC 240315Z AUTO 06004KT 10SM CLR 24/16 A3001 RMK AO2 T02350161
KGNC 240255Z AUTO 08006KT 10SM CLR 24/15 A2999 RMK AO2 T02410151
KGNC 240235Z AUTO 05006KT 10SM CLR 26/13 A2998 RMK AO2 T02560132
KGNC 240215Z AUTO 00000KT 10SM CLR 27/13 A2997 RMK AO2 T02730126
KGNC 240155Z AUTO 27007KT 10SM CLR 27/13 A2996 RMK AO2 T02720130
KGNC 240135Z AUTO 36004KT 10SM CLR 28/12 A2996 RMK AO2 T02770123
KGNC 240115Z AUTO 01006G16KT 10SM CLR 27/13 A2993 RMK AO2 T02740134
KGNC 240055Z AUTO 25009G17KT 10SM CLR 29/11 A2989 RMK AO2 T02870107
KGNC 240035Z AUTO 14015G21KT 10SM SCT110 28/10 A2986 RMK AO2 T02800104
KGNC 240015Z AUTO 15022G35KT 10SM -RA SCT020 SCT041 BKN110 27/11 A2986 RMK AO2 T02660111
KGNC 232355Z AUTO 16014G17KT 10SM -RA SCT019 BKN041 OVC060 26/10 A2996 RMK AO2 P0002 60009 T02630104 10405 20217
KGNC 232335Z AUTO 23006G33KT 10SM DZ SCT023 SCT042 BKN060 27/10 A3001 RMK AO2 T02700104
KGNC 232315Z AUTO 23020G24KT 10SM -RA SCT026 SCT048 SCT070 25/13 A3000 RMK AO2 T02510133
KGNC 232255Z AUTO 21008G20KT 180V260 7SM -RA SCT020 SCT027 BKN048 22/16 A3002 RMK AO2 P0007 T02220162
KGNC 232235Z AUTO 30020G34KT 7SM RA SCT045 SCT060 BKN090 24/16 A3003 RMK AO2 T02420156
KGNC 232215Z AUTO 24018G28KT 10SM -RA SCT110 30/12 A2998 RMK AO2 T02990115
KGNC 232155Z AUTO 19014G21KT 170V240 7SM BKN120 31/12 A2992 RMK AO2 T03070117 PWINO
KGNC 232135Z AUTO 10011KT 10SM -RA SCT120 36/13 A2990 RMK AO2 T03560131
KGNC 232115Z AUTO 12008KT 10SM SCT110 38/09 A2988 RMK AO2 T03780085
KGNC 232055Z AUTO 13009G14KT 10SM BKN110 39/09 A2987 RMK AO2 T03850087
KGNC 232035Z AUTO 11008G16KT 10SM BKN110 39/09 A2987 RMK AO2 T03910088
KGNC 232015Z AUTO 12011KT 10SM SCT110 40/09 A2988 RMK AO2 T03990090
KGNC 231955Z AUTO 12006KT 10SM CLR 40/09 A2990 RMK AO2 T03990091
KGNC 231935Z AUTO 14010KT 10SM CLR 40/10 A2991 RMK AO2 T03970096
KGNC 231915Z AUTO 20007KT 10SM CLR 39/09 A2991 RMK AO2 T03930090
KGNC 231855Z AUTO 16010KT 10SM CLR 39/10 A2991 RMK AO2 T03900098
KGNC 231835Z AUTO 12005KT 10SM CLR 39/10 A2991 RMK AO2 T03880101
KGNC 231815Z AUTO 12005KT 10SM CLR 39/10 A2991 RMK AO2 T03850100
KGNC 231755Z AUTO 20005KT 10SM CLR 38/11 A2991 RMK AO2 T03750106 10381 20245
KGNC 231735Z AUTO 11006KT 10SM CLR 38/11 A2991 RMK AO2 T03780107
KGNC 231715Z AUTO 18007KT 10SM CLR 37/11 A2991 RMK AO2 T03720114
KGNC 231655Z AUTO 16008KT 10SM CLR 37/12 A2991 RMK AO2 T03660115
KGNC 231635Z AUTO 19007KT 10SM CLR 36/12 A2991 RMK AO2 T03640117
KGNC 231615Z AUTO 19008G15KT 10SM CLR 36/12 A2990 RMK AO2 T03560119
KGNC 231555Z AUTO 20011G14KT 10SM CLR 35/12 A2990 RMK AO2 T03480121
KGNC 231535Z AUTO 19010KT 10SM CLR 34/12 A2990 RMK AO2 T03370121
KGNC 231515Z AUTO 19011KT 10SM CLR 33/12 A2990 RMK AO2 T03270121
KGNC 231455Z AUTO 19011KT 10SM CLR 33/12 A2990 RMK AO2 T03250121
KGNC 231435Z AUTO 18009KT 10SM CLR 31/12 A2989 RMK AO2 T03140123
KGNC 231415Z AUTO 17010G14KT 10SM CLR 31/12 A2989 RMK AO2 T03050122
KGNC 231355Z AUTO 16006KT 10SM CLR 29/13 A2989 RMK AO2 T02940131
KGNC 231335Z AUTO 15006KT 10SM CLR 29/13 A2988 RMK AO2 T02920130
KGNC 231315Z AUTO 17006KT 10SM CLR 28/14 A2987 RMK AO2 T02770135
KGNC 231255Z AUTO 16005KT 10SM CLR 26/14 A2986 RMK AO2 T02550136
KGNC 231235Z AUTO 12003KT 10SM CLR 25/14 A2986 RMK AO2 T02450135
KGNC 231215Z AUTO 13007KT 10SM CLR 25/13 A2987 RMK AO2 T02460129
KGNC 231155Z AUTO 10003KT 10SM CLR 25/14 A2988 RMK AO2 T02520136 10330 20252
KGNC 231135Z AUTO 10008KT 10SM CLR 26/13 A2986 RMK AO2 T02550126
KGNC 231115Z AUTO 04007G17KT 10SM -RA CLR 26/11 A2987 RMK AO2 T02640110
KGNC 231055Z AUTO 12006KT 10SM CLR 26/10 A2984 RMK AO2 T02590100
KGNC 231035Z AUTO 07005KT 10SM CLR 27/11 A2985 RMK AO2 T02670109
KGNC 231015Z AUTO 01003KT 10SM CLR 27/11 A2984 RMK AO2 T02700106
KGNC 230955Z AUTO 00000KT 10SM CLR 27/11 A2983 RMK AO2 T02680108
KGNC 230935Z AUTO 00000KT 10SM CLR 26/10 A2983 RMK AO2 T02640102
KGNC 230915Z AUTO 00000KT 10SM CLR 26/10 A2982 RMK AO2 T02600097
KGNC 230855Z AUTO 21003KT 10SM CLR 27/10 A2980 RMK AO2 T02660098


Page loaded:  20:53 UTC  |   01:53 PM Pacific  |   02:53 PM Mountain  |   03:53 PM Central  |   04:53 PM Eastern

 

ADVISORIES

FORECASTS

FORECASTS

OBSERVATIONS

USER TOOLS

ABOUT US